createdAt,value
2023-01-28T00:01:19.887Z,3.71
2023-01-28T00:03:52.068Z,3.71
2023-01-28T00:06:21.677Z,3.74
2023-01-28T00:08:50.438Z,3.83
2023-01-28T00:11:18.423Z,3.91
2023-01-28T00:13:46.596Z,3.97
2023-01-28T00:16:14.689Z,4.03
2023-01-28T00:18:42.831Z,4.05
2023-01-28T00:21:13.561Z,4.07
2023-01-28T00:23:45.049Z,4.06
2023-01-28T00:26:15.943Z,4.03
2023-01-28T00:28:45.252Z,3.97
2023-01-28T00:31:17.223Z,3.94
2023-01-28T00:33:45.721Z,3.92
2023-01-28T00:36:14.568Z,3.89
2023-01-28T00:38:44.450Z,3.85
2023-01-28T00:41:15.123Z,3.83
2023-01-28T00:43:44.851Z,3.83
2023-01-28T00:46:14.178Z,3.83
2023-01-28T00:48:43.727Z,3.85
2023-01-28T00:51:14.140Z,3.85
2023-01-28T00:53:44.205Z,3.89
2023-01-28T00:56:15.132Z,3.88
2023-01-28T00:58:44.512Z,3.91
2023-01-28T01:01:14.684Z,3.93
2023-01-28T01:03:42.857Z,3.93
2023-01-28T01:06:12.530Z,3.92
2023-01-28T01:08:42.959Z,3.91
2023-01-28T01:11:13.447Z,3.88
2023-01-28T01:13:41.868Z,3.88
2023-01-28T01:16:12.575Z,3.87
2023-01-28T01:18:42.146Z,3.89
2023-01-28T01:21:11.154Z,3.93
2023-01-28T01:23:39.647Z,3.99
2023-01-28T01:26:08.454Z,4.01
2023-01-28T01:28:38.441Z,4.07
2023-01-28T01:31:08.573Z,4.12
2023-01-28T01:33:39.993Z,4.15
2023-01-28T01:36:09.376Z,4.19
2023-01-28T01:38:38.043Z,4.21
2023-01-28T01:41:07.399Z,4.20
2023-01-28T01:43:51.829Z,4.17
2023-01-28T01:46:24.643Z,4.18
2023-01-28T01:48:54.050Z,4.17
2023-01-28T01:51:27.408Z,4.14
2023-01-28T01:53:59.097Z,4.14
2023-01-28T01:56:38.989Z,4.13
2023-01-28T01:59:12.897Z,4.12
2023-01-28T02:01:41.513Z,4.10
2023-01-28T02:04:14.057Z,4.07
2023-01-28T02:06:43.153Z,4.09
2023-01-28T02:09:24.514Z,4.07
2023-01-28T02:11:55.783Z,4.09
2023-01-28T02:14:31.376Z,4.09
2023-01-28T02:17:00.517Z,4.09
2023-01-28T02:19:35.756Z,4.09
2023-01-28T02:22:16.854Z,4.10
2023-01-28T02:25:03.398Z,4.11
2023-01-28T02:27:40.488Z,4.14
2023-01-28T02:30:15.696Z,4.14
2023-01-28T02:32:47.496Z,4.14
2023-01-28T02:35:21.923Z,4.14
2023-01-28T02:37:56.690Z,4.13
2023-01-28T02:40:29.893Z,4.17
2023-01-28T02:42:58.204Z,4.16
2023-01-28T02:45:50.748Z,4.15
2023-01-28T02:48:22.171Z,4.14
2023-01-28T02:50:59.581Z,4.13
2023-01-28T02:53:46.564Z,4.16
2023-01-28T02:56:21.261Z,4.15
2023-01-28T02:58:57.157Z,4.16
2023-01-28T03:01:31.048Z,4.18
2023-01-28T03:04:02.704Z,4.18
2023-01-28T03:06:36.469Z,4.18
2023-01-28T03:09:26.943Z,4.19
2023-01-28T03:12:16.804Z,4.18
2023-01-28T03:15:06.033Z,4.17
2023-01-28T03:18:01.490Z,4.18
2023-01-28T03:20:52.638Z,4.17
2023-01-28T03:23:46.024Z,4.15
2023-01-28T03:26:34.533Z,4.13
2023-01-28T03:29:27.181Z,4.11
2023-01-28T03:32:14.693Z,4.09
2023-01-28T03:35:03.358Z,4.09
2023-01-28T03:37:32.126Z,4.08
2023-01-28T03:40:05.004Z,4.05
2023-01-28T03:42:33.828Z,4.08
2023-01-28T03:45:04.902Z,4.08
2023-01-28T03:47:33.969Z,4.08
2023-01-28T03:50:03.596Z,4.07
2023-01-28T03:52:33.316Z,4.07
2023-01-28T03:55:01.417Z,4.07
2023-01-28T03:57:32.510Z,4.07
2023-01-28T04:00:01.010Z,4.05
2023-01-28T04:02:29.165Z,4.07
2023-01-28T04:04:59.049Z,4.06
2023-01-28T04:07:28.530Z,4.05
2023-01-28T04:09:56.692Z,4.06
2023-01-28T04:12:24.716Z,4.07
2023-01-28T04:14:52.777Z,4.07
2023-01-28T04:17:20.908Z,4.06
2023-01-28T04:19:48.983Z,4.03
2023-01-28T04:22:16.975Z,4.02
2023-01-28T04:24:46.492Z,3.99
2023-01-28T04:27:14.578Z,3.99
2023-01-28T04:29:42.592Z,4.00
2023-01-28T04:32:11.758Z,3.97
2023-01-28T04:34:40.043Z,3.97
2023-01-28T04:37:08.174Z,3.97
2023-01-28T04:39:36.339Z,3.94
2023-01-28T04:42:06.145Z,3.92
2023-01-28T04:44:34.429Z,3.93
2023-01-28T04:47:02.551Z,3.92
2023-01-28T04:49:33.622Z,3.91
2023-01-28T04:52:01.711Z,3.88
2023-01-28T04:54:29.778Z,3.88
2023-01-28T04:56:57.730Z,3.87
2023-01-28T04:59:27.318Z,3.88
2023-01-28T05:01:55.380Z,3.89
2023-01-28T05:04:23.571Z,3.87
2023-01-28T05:06:52.290Z,3.83
2023-01-28T05:09:20.319Z,3.79
2023-01-28T05:11:48.435Z,3.77
2023-01-28T05:14:16.552Z,3.77
2023-01-28T05:16:46.064Z,3.70
2023-01-28T05:19:14.167Z,3.62
2023-01-28T05:21:42.265Z,3.57
2023-01-28T05:24:10.750Z,3.54
2023-01-28T05:26:38.966Z,3.48
2023-01-28T05:29:07.032Z,3.44
2023-01-28T05:31:35.260Z,3.40
2023-01-28T05:34:04.861Z,3.40
2023-01-28T05:36:33.096Z,3.38
2023-01-28T05:39:01.120Z,3.36
2023-01-28T05:41:29.224Z,3.36
2023-01-28T05:43:57.375Z,3.36
2023-01-28T05:46:26.211Z,3.34
2023-01-28T05:48:54.331Z,3.36
2023-01-28T05:51:23.859Z,3.30
2023-01-28T05:53:52.091Z,3.30
2023-01-28T05:56:20.162Z,3.32
2023-01-28T05:58:48.293Z,3.31
2023-01-28T06:01:16.443Z,3.28
2023-01-28T06:03:44.558Z,3.30
2023-01-28T06:06:12.692Z,3.30
2023-01-28T06:08:42.911Z,3.31
2023-01-28T06:11:10.942Z,3.34
2023-01-28T06:13:39.120Z,3.35
2023-01-28T06:16:07.751Z,3.31
2023-01-28T06:18:36.284Z,3.27
2023-01-28T06:21:04.482Z,3.27
2023-01-28T06:23:32.536Z,3.29
2023-01-28T06:26:02.116Z,3.30
2023-01-28T06:28:30.366Z,3.33
2023-01-28T06:30:58.507Z,3.36
2023-01-28T06:33:26.571Z,3.40
2023-01-28T06:35:54.658Z,3.43
2023-01-28T06:38:22.911Z,3.42
2023-01-28T06:40:56.023Z,3.39
2023-01-28T06:43:28.199Z,3.38
2023-01-28T06:45:56.552Z,3.38
2023-01-28T06:48:25.346Z,3.42
2023-01-28T06:50:53.504Z,3.36
2023-01-28T06:53:22.677Z,3.34
2023-01-28T06:55:50.896Z,3.33
2023-01-28T06:58:19.381Z,3.33
2023-01-28T07:00:48.894Z,3.32
2023-01-28T07:03:17.094Z,3.29
2023-01-28T07:05:45.283Z,3.29
2023-01-28T07:08:14.300Z,3.27
2023-01-28T07:10:42.417Z,3.28
2023-01-28T07:13:10.709Z,3.30
2023-01-28T07:15:38.832Z,3.34
2023-01-28T07:18:08.383Z,3.35
2023-01-28T07:20:36.484Z,3.35
2023-01-28T07:23:04.628Z,3.36
2023-01-28T07:25:32.936Z,3.34
2023-01-28T07:28:01.015Z,3.37
2023-01-28T07:30:29.169Z,3.35
2023-01-28T07:32:58.272Z,3.38
2023-01-28T07:35:28.615Z,3.42
2023-01-28T07:37:58.164Z,3.45
2023-01-28T07:40:27.277Z,3.50
2023-01-28T07:42:56.791Z,3.56
2023-01-28T07:45:26.008Z,3.63
2023-01-28T07:47:58.450Z,3.63
2023-01-28T07:50:29.166Z,3.69
2023-01-28T07:52:57.679Z,3.77
2023-01-28T07:55:26.043Z,3.82
2023-01-28T07:57:55.739Z,3.82
2023-01-28T08:00:24.970Z,3.87
2023-01-28T08:02:57.546Z,3.86
2023-01-28T08:05:28.306Z,3.92
2023-01-28T08:07:56.665Z,4.03
2023-01-28T08:10:24.817Z,4.14
2023-01-28T08:12:54.007Z,4.19
2023-01-28T08:15:22.187Z,4.21
2023-01-28T08:17:50.484Z,4.28
2023-01-28T08:20:18.994Z,4.36
2023-01-28T08:22:48.419Z,4.51
2023-01-28T08:25:16.554Z,4.65
2023-01-28T08:27:44.756Z,4.80
2023-01-28T08:30:13.861Z,4.97
2023-01-28T08:32:42.097Z,5.11
2023-01-28T08:35:10.418Z,5.32
2023-01-28T08:37:38.702Z,5.53
2023-01-28T08:40:09.971Z,5.62
2023-01-28T08:42:38.112Z,5.68
2023-01-28T08:45:07.440Z,5.82
2023-01-28T08:47:35.564Z,5.97
2023-01-28T08:50:03.716Z,6.13
2023-01-28T08:52:31.853Z,6.19
2023-01-28T08:55:00.200Z,6.32
2023-01-28T08:57:29.754Z,6.50
2023-01-28T08:59:57.855Z,6.61
2023-01-28T09:02:32.014Z,6.69
2023-01-28T09:05:00.660Z,6.65
2023-01-28T09:07:28.892Z,6.68
2023-01-28T09:09:57.069Z,6.75
2023-01-28T09:12:25.614Z,6.86
2023-01-28T09:14:55.206Z,6.97
2023-01-28T09:17:23.916Z,7.10
2023-01-28T09:19:52.281Z,7.06
2023-01-28T09:22:20.507Z,7.09
2023-01-28T09:24:48.707Z,7.01
2023-01-28T09:27:17.064Z,6.93
2023-01-28T09:29:45.160Z,6.86
2023-01-28T09:32:14.708Z,6.84
2023-01-28T09:34:44.503Z,6.76
2023-01-28T09:37:12.833Z,6.68
2023-01-28T09:39:40.875Z,6.57
2023-01-28T09:42:37.575Z,6.46
2023-01-28T09:45:13.563Z,6.39
2023-01-28T09:47:47.686Z,6.33
2023-01-28T09:50:19.622Z,6.24
2023-01-28T09:52:47.989Z,6.28
2023-01-28T09:55:26.054Z,6.33
2023-01-28T09:57:55.566Z,6.46
2023-01-28T10:00:25.300Z,6.58
2023-01-28T10:03:10.843Z,6.78
2023-01-28T10:05:52.755Z,7.06
2023-01-28T10:08:38.140Z,7.30
2023-01-28T10:11:12.232Z,7.47
2023-01-28T10:13:48.460Z,7.54
2023-01-28T10:16:28.228Z,7.54
2023-01-28T10:19:02.315Z,7.48
2023-01-28T10:21:38.078Z,7.50
2023-01-28T10:24:12.395Z,7.51
2023-01-28T10:26:44.371Z,7.53
2023-01-28T10:29:18.472Z,7.56
2023-01-28T10:31:53.720Z,7.59
2023-01-28T10:34:24.293Z,7.59
2023-01-28T10:36:53.306Z,7.56
2023-01-28T10:39:24.797Z,7.51
2023-01-28T10:41:58.137Z,7.45
2023-01-28T10:44:34.104Z,7.38
2023-01-28T10:47:05.981Z,7.37
2023-01-28T10:49:46.925Z,7.37
2023-01-28T10:52:15.906Z,7.36
2023-01-28T10:54:43.966Z,7.33
2023-01-28T10:57:16.463Z,7.29
2023-01-28T10:59:44.756Z,7.26
2023-01-28T11:02:28.383Z,7.24
2023-01-28T11:05:07.054Z,7.18
2023-01-28T11:07:35.498Z,7.11
2023-01-28T11:10:03.843Z,7.05
2023-01-28T11:12:32.464Z,6.98
2023-01-28T11:15:01.985Z,6.94
2023-01-28T11:17:32.335Z,6.92
2023-01-28T11:20:10.209Z,6.93
2023-01-28T11:22:44.295Z,6.95
2023-01-28T11:25:19.433Z,6.94
2023-01-28T11:27:50.180Z,6.96
2023-01-28T11:30:23.782Z,7.00
2023-01-28T11:32:57.386Z,7.04
2023-01-28T11:35:28.857Z,7.04
2023-01-28T11:37:59.015Z,7.06
2023-01-28T11:40:27.661Z,7.10
2023-01-28T11:43:02.865Z,7.11
2023-01-28T11:45:39.869Z,7.15
2023-01-28T11:48:32.103Z,7.24
2023-01-28T11:51:05.934Z,7.34
2023-01-28T11:53:49.382Z,7.37
2023-01-28T11:56:45.824Z,7.28
2023-01-28T11:59:35.273Z,7.26
2023-01-28T12:02:16.367Z,7.27
2023-01-28T12:04:58.746Z,7.34
2023-01-28T12:07:40.133Z,7.38
2023-01-28T12:10:21.448Z,7.50
2023-01-28T12:13:04.226Z,7.60
2023-01-28T12:16:12.285Z,7.62
2023-01-28T12:19:13.747Z,7.62
2023-01-28T12:21:54.975Z,7.56
2023-01-28T12:24:35.626Z,7.50
2023-01-28T12:27:13.383Z,7.35
2023-01-28T12:29:55.681Z,7.29
2023-01-28T12:32:39.542Z,7.19
2023-01-28T12:35:22.835Z,7.03
2023-01-28T12:38:03.131Z,6.94
2023-01-28T12:40:53.914Z,6.97
2023-01-28T12:43:31.480Z,7.04
2023-01-28T12:46:06.069Z,7.14
2023-01-28T12:48:39.113Z,7.13
2023-01-28T12:51:15.693Z,7.13
2023-01-28T12:53:49.212Z,7.21
2023-01-28T12:56:19.571Z,7.26
2023-01-28T12:58:56.415Z,7.18
2023-01-28T13:01:29.806Z,7.18
2023-01-28T13:04:05.253Z,7.19
2023-01-28T13:06:39.398Z,7.22
2023-01-28T13:09:16.611Z,7.21
2023-01-28T13:11:45.744Z,7.11
2023-01-28T13:14:15.916Z,6.98
2023-01-28T13:16:44.056Z,6.90
2023-01-28T13:19:25.212Z,6.81
2023-01-28T13:21:53.702Z,6.72
2023-01-28T13:24:31.974Z,6.59
2023-01-28T13:27:00.237Z,6.51
2023-01-28T13:29:34.988Z,6.46
2023-01-28T13:32:24.421Z,6.42
2023-01-28T13:35:00.127Z,6.33
2023-01-28T13:37:32.891Z,6.21
2023-01-28T13:40:07.538Z,6.15
2023-01-28T13:42:36.289Z,6.12
2023-01-28T13:45:25.169Z,6.01
2023-01-28T13:47:58.499Z,5.91
2023-01-28T13:50:34.820Z,5.83
2023-01-28T13:53:06.376Z,5.81
2023-01-28T13:55:44.817Z,5.73
2023-01-28T13:58:35.817Z,5.59
2023-01-28T14:01:41.492Z,5.42
2023-01-28T14:04:50.901Z,5.34
2023-01-28T14:08:10.919Z,5.30
2023-01-28T14:10:56.327Z,5.33
2023-01-28T14:13:41.028Z,5.31
2023-01-28T14:16:37.598Z,5.27
2023-01-28T14:19:06.859Z,5.29
2023-01-28T14:21:36.632Z,5.21
2023-01-28T14:24:05.795Z,5.16
2023-01-28T14:26:44.450Z,5.14
2023-01-28T14:29:22.402Z,5.05
2023-01-28T14:31:52.947Z,5.02
2023-01-28T14:34:27.004Z,5.01
2023-01-28T14:36:59.805Z,5.00
2023-01-28T14:39:30.278Z,4.97
2023-01-28T14:42:02.537Z,4.87
2023-01-28T14:44:34.359Z,4.79
2023-01-28T14:47:19.891Z,4.74
2023-01-28T14:50:03.383Z,4.72
2023-01-28T14:52:50.808Z,4.72
2023-01-28T14:55:33.270Z,4.73
2023-01-28T14:58:04.767Z,4.71
2023-01-28T15:00:34.831Z,4.68
2023-01-28T15:03:24.107Z,4.67
2023-01-28T15:06:03.874Z,4.67
2023-01-28T15:08:33.463Z,4.65
2023-01-28T15:11:03.503Z,4.59
2023-01-28T15:13:35.043Z,4.52
2023-01-28T15:16:03.503Z,4.50
2023-01-28T15:18:36.947Z,4.48
2023-01-28T15:21:05.623Z,4.45
2023-01-28T15:23:36.411Z,4.41
2023-01-28T15:26:09.003Z,4.39
2023-01-28T15:28:40.519Z,4.39
2023-01-28T15:31:08.695Z,4.33
2023-01-28T15:33:38.218Z,4.28
2023-01-28T15:36:07.274Z,4.27
2023-01-28T15:38:35.384Z,4.24
2023-01-28T15:41:06.235Z,4.20
2023-01-28T15:43:37.337Z,4.17
2023-01-28T15:46:12.809Z,4.12
2023-01-28T15:48:45.853Z,4.10
2023-01-28T15:51:22.025Z,4.05
2023-01-28T15:53:54.427Z,4.07
2023-01-28T15:56:27.875Z,4.05
2023-01-28T15:58:56.950Z,4.03
2023-01-28T16:01:25.656Z,4.01
2023-01-28T16:04:06.595Z,4.00
2023-01-28T16:06:38.587Z,3.98
2023-01-28T16:09:08.567Z,3.94
2023-01-28T16:11:44.638Z,3.93
2023-01-28T16:14:24.105Z,3.89
2023-01-28T16:16:53.855Z,3.88
2023-01-28T16:19:33.936Z,3.80
2023-01-28T16:22:02.801Z,3.78
2023-01-28T16:24:33.069Z,3.77
2023-01-28T16:27:03.151Z,3.74
2023-01-28T16:29:32.252Z,3.75
2023-01-28T16:32:01.421Z,3.77
2023-01-28T16:34:31.007Z,3.77
2023-01-28T16:37:00.476Z,3.81
2023-01-28T16:39:30.020Z,3.78
2023-01-28T16:41:58.113Z,3.74
2023-01-28T16:44:26.153Z,3.71
2023-01-28T16:46:54.279Z,3.67
2023-01-28T16:49:22.462Z,3.69
2023-01-28T16:51:52.369Z,3.68
2023-01-28T16:54:20.549Z,3.65
2023-01-28T16:56:48.729Z,3.66
2023-01-28T16:59:17.694Z,3.68
2023-01-28T17:01:46.501Z,3.66
2023-01-28T17:04:14.925Z,3.62
2023-01-28T17:06:45.373Z,3.64
2023-01-28T17:09:16.284Z,3.60
2023-01-28T17:11:44.575Z,3.62
2023-01-28T17:14:12.975Z,3.59
2023-01-28T17:16:41.280Z,3.60
2023-01-28T17:19:09.333Z,3.58
2023-01-28T17:21:37.487Z,3.54
2023-01-28T17:24:06.504Z,3.54
2023-01-28T17:26:37.078Z,3.51
2023-01-28T17:29:06.507Z,3.54
2023-01-28T17:31:34.794Z,3.56
2023-01-28T17:34:03.275Z,3.58
2023-01-28T17:36:31.298Z,3.63
2023-01-28T17:38:59.402Z,3.67
2023-01-28T17:41:27.636Z,3.71
2023-01-28T17:43:58.068Z,3.74
2023-01-28T17:46:27.056Z,3.76
2023-01-28T17:48:55.147Z,3.77
2023-01-28T17:51:23.557Z,3.77
2023-01-28T17:53:52.862Z,3.76
2023-01-28T17:56:23.058Z,3.73
2023-01-28T17:58:52.187Z,3.70
2023-01-28T18:01:22.373Z,3.65
2023-01-28T18:03:51.078Z,3.66
2023-01-28T18:06:19.653Z,3.65
2023-01-28T18:08:47.866Z,3.64
2023-01-28T18:11:18.530Z,3.65
2023-01-28T18:13:47.209Z,3.63
2023-01-28T18:16:18.216Z,3.60
2023-01-28T18:18:49.077Z,3.59
2023-01-28T18:21:42.915Z,3.58
2023-01-28T18:24:18.956Z,3.57
2023-01-28T18:26:47.231Z,3.55
2023-01-28T18:29:20.339Z,3.55
2023-01-28T18:31:49.101Z,3.55
2023-01-28T18:34:19.097Z,3.57
2023-01-28T18:36:47.458Z,3.59
2023-01-28T18:39:16.342Z,3.60
2023-01-28T18:41:44.798Z,3.63
2023-01-28T18:44:14.393Z,3.65
2023-01-28T18:46:44.629Z,3.65
2023-01-28T18:49:12.779Z,3.66
2023-01-28T18:51:43.854Z,3.67
2023-01-28T18:54:14.834Z,3.69
2023-01-28T18:56:43.511Z,3.69
2023-01-28T18:59:13.710Z,3.71
2023-01-28T19:01:42.817Z,3.72
2023-01-28T19:04:11.330Z,3.75
2023-01-28T19:06:39.762Z,3.77
2023-01-28T19:09:12.696Z,3.76
2023-01-28T19:11:41.686Z,3.79
2023-01-28T19:14:10.167Z,3.77
2023-01-28T19:16:39.032Z,3.78
2023-01-28T19:19:07.734Z,3.80
2023-01-28T19:21:36.169Z,3.81
2023-01-28T19:24:09.729Z,3.81
2023-01-28T19:26:39.963Z,3.78
2023-01-28T19:29:09.388Z,3.75
2023-01-28T19:31:38.499Z,3.65
2023-01-28T19:34:07.310Z,3.58
2023-01-28T19:36:36.035Z,3.55
2023-01-28T19:39:07.109Z,3.53
2023-01-28T19:41:35.458Z,3.55
2023-01-28T19:44:06.093Z,3.58
2023-01-28T19:46:36.100Z,3.63
2023-01-28T19:49:06.033Z,3.62
2023-01-28T19:51:34.159Z,3.60
2023-01-28T19:54:02.305Z,3.63
2023-01-28T19:56:30.664Z,3.66
2023-01-28T19:58:58.740Z,3.69
2023-01-28T20:01:30.598Z,3.74
2023-01-28T20:04:00.589Z,3.78
2023-01-28T20:06:30.321Z,3.82
2023-01-28T20:09:00.953Z,3.84
2023-01-28T20:11:29.042Z,3.89
2023-01-28T20:13:57.722Z,3.92
2023-01-28T20:16:29.888Z,3.96
2023-01-28T20:18:59.645Z,3.96
2023-01-28T20:21:29.608Z,3.96
2023-01-28T20:23:59.310Z,3.93
2023-01-28T20:26:31.305Z,3.91
2023-01-28T20:29:02.535Z,3.91
2023-01-28T20:31:32.797Z,3.92
2023-01-28T20:34:01.462Z,3.93
2023-01-28T20:36:29.835Z,3.93
2023-01-28T20:38:58.056Z,3.95
2023-01-28T20:41:27.824Z,3.97
2023-01-28T20:43:56.403Z,3.99
2023-01-28T20:46:27.729Z,4.01
2023-01-28T20:48:59.214Z,4.03
2023-01-28T20:51:29.284Z,4.05
2023-01-28T20:53:59.094Z,4.05
2023-01-28T20:56:29.932Z,4.08
2023-01-28T20:59:00.334Z,4.08
2023-01-28T21:01:30.682Z,4.09
2023-01-28T21:04:00.678Z,4.06
2023-01-28T21:06:29.346Z,4.06
2023-01-28T21:08:58.173Z,4.07
2023-01-28T21:11:27.803Z,4.04
2023-01-28T21:13:56.405Z,4.01
2023-01-28T21:16:25.288Z,3.99
2023-01-28T21:18:53.315Z,3.97
2023-01-28T21:21:24.450Z,3.95
2023-01-28T21:23:54.767Z,3.93
2023-01-28T21:26:22.970Z,3.93
2023-01-28T21:28:51.022Z,3.91
2023-01-28T21:31:21.067Z,3.85
2023-01-28T21:33:50.575Z,3.76
2023-01-28T21:36:19.088Z,3.69
2023-01-28T21:38:51.876Z,3.63
2023-01-28T21:41:20.037Z,3.60
2023-01-28T21:43:50.309Z,3.56
2023-01-28T21:46:18.403Z,3.56
2023-01-28T21:48:46.788Z,3.54
2023-01-28T21:51:35.121Z,3.52
2023-01-28T21:54:05.541Z,3.48
2023-01-28T21:56:33.672Z,3.47
2023-01-28T21:59:19.254Z,3.47
2023-01-28T22:01:47.826Z,3.49
2023-01-28T22:04:16.260Z,3.46
2023-01-28T22:06:45.306Z,3.44
2023-01-28T22:09:15.116Z,3.42
2023-01-28T22:11:44.636Z,3.40
2023-01-28T22:14:13.548Z,3.36
2023-01-28T22:16:42.148Z,3.34
2023-01-28T22:19:10.792Z,3.32
2023-01-28T22:21:41.327Z,3.29
2023-01-28T22:24:12.194Z,3.26
2023-01-28T22:26:42.477Z,3.25
2023-01-28T22:29:11.455Z,3.29
2023-01-28T22:31:40.441Z,3.31
2023-01-28T22:34:09.412Z,3.33
2023-01-28T22:36:37.500Z,3.35
2023-01-28T22:39:08.889Z,3.33
2023-01-28T22:41:36.991Z,3.33
2023-01-28T22:44:06.709Z,3.31
2023-01-28T22:46:35.921Z,3.27
2023-01-28T22:49:05.328Z,3.22
2023-01-28T22:51:35.077Z,3.18
2023-01-28T22:54:03.381Z,3.16
2023-01-28T22:56:32.244Z,3.12
2023-01-28T22:59:01.787Z,3.10
2023-01-28T23:01:31.997Z,3.07
2023-01-28T23:04:00.487Z,3.06
2023-01-28T23:06:30.066Z,3.09
2023-01-28T23:08:59.190Z,3.10
2023-01-28T23:11:28.208Z,3.11
2023-01-28T23:14:16.306Z,3.11
2023-01-28T23:17:03.785Z,3.09
2023-01-28T23:19:49.701Z,3.05
2023-01-28T23:22:40.007Z,2.99
2023-01-28T23:25:08.756Z,2.99
2023-01-28T23:27:36.972Z,2.99
2023-01-28T23:30:10.288Z,3.01
2023-01-28T23:32:41.439Z,3.03
2023-01-28T23:35:10.957Z,3.07
2023-01-28T23:37:39.179Z,3.11
2023-01-28T23:40:08.819Z,3.10
2023-01-28T23:42:36.972Z,3.13
2023-01-28T23:45:05.743Z,3.14
2023-01-28T23:47:34.138Z,3.15
2023-01-28T23:50:03.868Z,3.18
2023-01-28T23:52:31.988Z,3.21
2023-01-28T23:55:00.276Z,3.22
2023-01-28T23:57:28.444Z,3.24
2023-01-28T23:59:56.859Z,3.26
